Time;durP1;ratioP1;P1;durP2;ratioP2;P2;SDS_P1;SDS_P2;PMS_P1;PMS_P2;Temp;Humidity;BMP_temperature;BMP_pressure;BME280_temperature;BME280_humidity;BME280_pressure;Samples;Min_cycle;Max_cycle;Signal;HPM_P1;HPM_P2
2022/09/20 00:02:05;;;;;;;13.85;2.53;;;;;;;9.55;66.52;100433.66;10371857;28;20061;-77
2022/09/20 00:07:07;;;;;;;12.25;2.53;;;;;;;9.56;66.38;100436.19;10372560;28;20054;-77
2022/09/20 00:12:08;;;;;;;10.18;2.55;;;;;;;9.50;66.40;100436.47;10372589;28;20057;-78
2022/09/20 00:17:10;;;;;;;11.02;2.40;;;;;;;9.47;66.39;100428.81;10370975;28;20058;-77
2022/09/20 00:22:12;;;;;;;11.00;2.33;;;;;;;9.40;66.53;100434.41;10374611;28;20574;-78
2022/09/20 00:27:13;;;;;;;14.13;2.50;;;;;;;9.29;66.83;100434.03;10370883;28;20044;-77
2022/09/20 00:32:15;;;;;;;9.25;2.45;;;;;;;9.24;67.10;100436.84;10374310;28;20622;-77
2022/09/20 00:37:17;;;;;;;10.07;2.75;;;;;;;9.22;67.31;100432.66;10369371;28;20052;-77
2022/09/20 00:42:18;;;;;;;13.50;3.22;;;;;;;9.18;67.65;100429.31;10370523;28;20057;-77
2022/09/20 00:47:38;;;;;;;8.70;2.90;;;;;;;9.12;67.72;100434.81;10367669;28;20959;-77
2022/09/20 00:52:44;;;;;;;11.90;3.65;;;;;;;9.13;67.82;100433.91;10371104;28;20046;-77
2022/09/20 00:57:46;;;;;;;14.25;3.63;;;;;;;9.09;67.69;100439.31;10366292;28;20056;-77
2022/09/20 01:02:54;;;;;;;13.68;3.65;;;;;;;8.97;67.88;100434.66;10375387;28;20065;-77
2022/09/20 01:07:56;;;;;;;11.65;3.67;;;;;;;8.87;67.69;100441.22;10393835;28;20068;-77
2022/09/20 01:12:58;;;;;;;11.52;3.67;;;;;;;8.77;67.61;100436.41;10377705;28;20061;-76
2022/09/20 01:18:01;;;;;;;12.27;3.45;;;;;;;8.66;67.80;100440.41;10376591;28;20080;-77
2022/09/20 01:23:38;;;;;;;7.45;3.20;;;;;;;8.56;67.91;100434.75;10377328;28;20048;-77
2022/09/20 01:28:44;;;;;;;15.57;4.93;;;;;;;8.51;68.06;100438.44;10377732;28;20445;-77
2022/09/20 01:33:59;;;;;;;11.15;5.15;;;;;;;8.55;68.68;100440.84;10393084;28;20045;-77
2022/09/20 01:39:42;;;;;;;12.52;5.20;;;;;;;8.49;68.49;100446.34;10392104;28;20060;-76
2022/09/20 01:45:09;;;;;;;12.15;5.10;;;;;;;8.52;68.73;100442.75;10377035;28;20054;-77
2022/09/20 01:50:38;;;;;;;11.73;4.60;;;;;;;8.51;68.71;100448.88;10408005;28;20496;-77
2022/09/20 01:55:40;;;;;;;14.43;5.30;;;;;;;8.47;68.62;100449.91;10378141;28;20069;-77
2022/09/20 02:01:02;;;;;;;14.90;4.40;;;;;;;8.47;68.47;100448.16;10377663;28;20064;-77
2022/09/20 02:06:22;;;;;;;12.15;5.18;;;;;;;8.43;68.57;100449.22;10378240;28;20060;-77
2022/09/20 02:11:53;;;;;;;14.60;5.20;;;;;;;8.36;68.15;100457.38;10381207;28;20064;-77
2022/09/20 02:16:59;;;;;;;12.70;4.28;;;;;;;8.32;68.19;100456.66;10382142;28;20050;-77
2022/09/20 02:22:18;;;;;;;15.95;5.40;;;;;;;8.17;68.11;100444.25;10380030;28;20103;-77
2022/09/20 02:27:40;;;;;;;12.82;6.13;;;;;;;7.97;67.94;100457.22;10380131;28;20052;-77
2022/09/20 02:32:59;;;;;;;11.80;4.82;;;;;;;7.93;67.95;100448.69;10380077;28;20518;-77
2022/09/20 02:38:20;;;;;;;12.35;5.55;;;;;;;7.74;68.55;100463.34;10380958;28;20057;-76
2022/09/20 02:43:58;;;;;;;15.75;5.22;;;;;;;7.79;68.76;100464.00;10412723;28;20064;-77
2022/09/20 02:49:11;;;;;;;15.00;6.20;;;;;;;8.08;69.24;100460.22;10383455;28;20049;-77
2022/09/20 02:54:23;;;;;;;17.83;6.35;;;;;;;8.31;68.98;100456.69;10409835;28;20173;-77
2022/09/20 02:59:44;;;;;;;12.75;5.65;;;;;;;8.33;68.79;100458.34;10381010;28;20053;-76
2022/09/20 03:05:04;;;;;;;17.05;6.88;;;;;;;8.29;69.21;100463.72;10377191;28;20050;-76
2022/09/20 03:10:24;;;;;;;14.35;7.30;;;;;;;8.35;69.05;100451.28;10375811;28;20049;-77
2022/09/20 03:15:36;;;;;;;15.55;7.90;;;;;;;8.31;69.00;100456.69;10387467;28;20045;-77
2022/09/20 03:21:29;;;;;;;15.77;6.60;;;;;;;8.19;68.38;100458.06;10376504;28;20058;-77
2022/09/20 03:26:53;;;;;;;17.17;7.28;;;;;;;8.25;68.47;100459.56;10367461;28;20065;-77
2022/09/20 03:32:18;;;;;;;18.00;8.05;;;;;;;8.48;68.33;100469.88;10408147;28;20049;-77
2022/09/20 03:37:20;;;;;;;15.52;7.60;;;;;;;8.80;67.98;100464.97;10349732;28;20065;-76
2022/09/20 03:42:29;;;;;;;23.05;8.70;;;;;;;8.96;67.49;100459.03;10371765;28;20056;-77
2022/09/20 03:47:40;;;;;;;20.70;8.05;;;;;;;9.01;67.83;100463.16;10370812;28;20753;-77
2022/09/20 03:52:56;;;;;;;;;;;;;;;8.97;68.31;100463.38;10373414;28;20045;-77
2022/09/20 03:58:02;;;;;;;21.70;7.75;;;;;;;9.40;67.25;100463.94;10371338;28;19924;-77
2022/09/20 04:03:41;;;;;;;11.25;6.47;;;;;;;9.32;66.82;100462.63;10389078;28;20065;-77
2022/09/20 04:09:23;;;;;;;10.93;5.07;;;;;;;9.23;66.74;100458.66;10372458;28;20053;-77
2022/09/20 04:14:34;;;;;;;;;;;;;;;8.80;67.25;100471.94;10374161;28;20061;-76
2022/09/20 04:20:12;;;;;;;14.10;6.22;;;;;;;8.83;66.79;100462.19;10370410;28;19924;-76
2022/09/20 04:25:22;;;;;;;16.10;7.13;;;;;;;8.65;67.22;100460.41;10387606;28;20044;-76
2022/09/20 04:30:29;;;;;;;10.88;5.13;;;;;;;8.66;67.33;100462.13;10371738;28;20080;-77
2022/09/20 04:41:38;;;;;;;10.82;6.40;;;;;;;8.72;67.54;100455.78;10382186;28;20049;-77
2022/09/20 04:46:42;;;;;;;18.58;7.22;;;;;;;8.57;67.50;100467.72;10378884;28;20052;-77
2022/09/20 04:52:18;;;;;;;17.48;7.50;;;;;;;8.35;67.73;100466.94;10377594;28;20053;-77
2022/09/20 04:57:47;;;;;;;12.65;6.63;;;;;;;8.11;68.40;100461.88;10393457;28;20050;-77
2022/09/20 05:03:04;;;;;;;17.05;7.35;;;;;;;8.10;68.49;100474.06;10373321;28;20045;-77
2022/09/20 05:08:25;;;;;;;20.67;10.75;;;;;;;8.10;69.63;100481.03;10392141;28;20076;-77
2022/09/20 05:13:57;;;;;;;21.17;10.63;;;;;;;8.22;69.56;100477.94;10378963;28;20418;-76
2022/09/20 05:19:12;;;;;;;18.42;11.50;;;;;;;8.32;69.60;100487.06;10392513;28;20093;-77
2022/09/20 05:24:23;;;;;;;22.85;10.93;;;;;;;8.40;69.46;100485.84;10379159;28;20057;-77
2022/09/20 05:29:35;;;;;;;;;;;;;;;8.26;69.96;100492.53;10392209;28;20511;-76
2022/09/20 05:35:03;;;;;;;15.63;9.80;;;;;;;8.47;68.92;100486.41;10377784;28;19922;-77
2022/09/20 05:40:29;;;;;;;22.63;11.40;;;;;;;8.53;68.83;100487.00;10378736;28;20050;-76
2022/09/20 05:45:56;;;;;;;19.85;12.30;;;;;;;8.58;69.22;100505.06;10375466;28;20054;-77
2022/09/20 05:51:14;;;;;;;18.27;10.20;;;;;;;8.61;69.32;100504.91;10377227;28;20459;-76
2022/09/20 05:56:28;;;;;;;20.73;12.45;;;;;;;8.71;69.29;100514.03;10376167;28;20056;-77
2022/09/20 06:01:40;;;;;;;20.23;10.30;;;;;;;8.85;68.90;100507.31;10375722;28;20455;-77
2022/09/20 06:07:00;;;;;;;27.05;12.00;;;;;;;8.91;68.14;100519.28;10375017;28;20041;-76
2022/09/20 06:12:34;;;;;;;22.88;11.73;;;;;;;8.90;68.31;100517.56;10377805;28;20951;-76
2022/09/20 06:17:58;;;;;;;22.05;9.50;;;;;;;8.98;68.31;100522.44;10366413;28;20042;-77
2022/09/20 06:23:04;;;;;;;26.75;13.15;;;;;;;9.17;68.09;100521.56;10371828;28;20045;-77
2022/09/20 06:28:14;;;;;;;22.02;12.05;;;;;;;9.29;68.13;100526.25;10373670;28;20069;-77
2022/09/20 06:33:19;;;;;;;22.35;12.05;;;;;;;9.39;68.04;100526.66;10374851;28;20065;-77
2022/09/20 06:43:44;;;;;;;20.98;10.70;;;;;;;9.99;67.50;100526.44;10372302;28;20057;-76
2022/09/20 06:48:46;;;;;;;20.73;11.15;;;;;;;10.41;67.22;100529.59;10371080;28;20058;-77
2022/09/20 06:53:48;;;;;;;20.38;10.70;;;;;;;11.07;66.18;100527.94;10375279;28;20049;-79
2022/09/20 06:58:51;;;;;;;15.18;10.02;;;;;;;11.31;65.37;100536.31;10371446;28;20420;-79
2022/09/20 07:03:53;;;;;;;19.15;9.32;;;;;;;11.36;65.48;100525.59;10366814;28;20053;-80
2022/09/20 07:08:54;;;;;;;16.48;9.73;;;;;;;11.36;65.32;100529.03;10366961;28;20046;-79
2022/09/20 07:13:59;;;;;;;18.63;9.38;;;;;;;11.36;64.94;100529.03;10374809;28;20053;-79
2022/09/20 07:19:02;;;;;;;18.25;9.15;;;;;;;11.47;64.54;100529.31;10372840;28;20064;-82
2022/09/20 07:24:03;;;;;;;18.02;8.75;;;;;;;11.54;64.03;100535.06;10368491;28;20061;-82
2022/09/20 07:29:06;;;;;;;16.02;8.52;;;;;;;11.50;63.45;100534.38;10374342;28;20053;-82
2022/09/20 07:34:09;;;;;;;16.60;7.57;;;;;;;11.49;62.86;100540.56;10372358;28;20499;-82
2022/09/20 07:39:11;;;;;;;19.58;7.78;;;;;;;11.90;61.71;100540.91;10374780;28;20431;-83
2022/09/20 07:44:26;;;;;;;11.35;6.50;;;;;;;12.04;60.16;100538.38;10367986;28;20290;-83
2022/09/20 07:49:29;;;;;;;14.35;6.82;;;;;;;12.56;59.11;100537.09;10368725;28;20060;-82
2022/09/20 07:54:30;;;;;;;14.95;7.68;;;;;;;13.34;57.56;100541.16;10375195;28;21312;-83
2022/09/20 07:59:32;;;;;;;14.57;6.70;;;;;;;14.12;55.79;100525.66;10371145;28;20526;-82
2022/09/20 08:04:34;;;;;;;12.85;5.90;;;;;;;15.01;53.67;100529.31;10372332;28;21106;-82
2022/09/20 08:09:35;;;;;;;16.90;6.63;;;;;;;15.04;52.53;100532.56;10372731;28;20049;-87
2022/09/20 08:14:37;;;;;;;11.57;5.75;;;;;;;14.90;51.91;100545.84;10371983;28;20053;-84
2022/09/20 08:19:39;;;;;;;18.83;7.85;;;;;;;15.51;51.11;100542.47;10373912;28;20156;-86
2022/09/20 08:24:41;;;;;;;13.35;5.90;;;;;;;16.00;50.27;100534.53;10395614;28;20057;-84
2022/09/20 08:29:42;;;;;;;16.80;6.10;;;;;;;16.55;49.06;100544.59;10371028;28;20061;-85
2022/09/20 08:34:45;;;;;;;12.10;5.85;;;;;;;16.78;48.19;100536.59;10370165;28;20050;-85
2022/09/20 08:39:49;;;;;;;9.35;5.50;;;;;;;16.27;49.15;100544.88;10370812;28;20058;-84
2022/09/20 08:45:02;;;;;;;12.73;5.83;;;;;;;15.62;51.33;100547.00;10372664;28;20140;-84
2022/09/20 08:50:06;;;;;;;12.75;5.32;;;;;;;14.84;53.04;100550.72;10383511;28;20498;-85
2022/09/20 08:55:21;;;;;;;10.65;5.22;;;;;;;14.12;55.08;100561.63;10371820;28;20067;-84
2022/09/20 09:00:32;;;;;;;11.48;5.78;;;;;;;13.62;56.71;100570.06;10370111;28;20392;-84
2022/09/20 09:05:41;;;;;;;16.00;5.47;;;;;;;13.56;57.01;100573.06;10372772;28;20872;-84
2022/09/20 09:10:46;;;;;;;11.27;5.25;;;;;;;13.88;56.96;100574.53;10369636;28;20388;-84
2022/09/20 09:15:57;;;;;;;8.43;4.43;;;;;;;14.26;55.67;100565.06;10373692;28;20073;-84
2022/09/20 09:21:02;;;;;;;10.35;4.25;;;;;;;14.51;55.49;100570.41;10372827;28;20085;-84
2022/09/20 09:26:04;;;;;;;9.43;4.15;;;;;;;14.62;55.33;100559.19;10375343;28;20638;-85
2022/09/20 09:31:21;;;;;;;8.05;4.22;;;;;;;14.48;55.17;100567.97;10378150;28;20049;-84
2022/09/20 09:36:24;;;;;;;9.73;4.07;;;;;;;14.08;56.17;100566.25;10381377;28;20049;-84
2022/09/20 09:41:34;;;;;;;10.48;4.63;;;;;;;13.58;57.69;100569.41;10366338;28;20148;-86
2022/09/20 09:46:38;;;;;;;11.13;5.00;;;;;;;13.43;58.42;100575.59;10382343;28;20050;-84
2022/09/20 09:52:01;;;;;;;11.60;5.20;;;;;;;13.41;59.10;100577.44;10371467;28;20060;-84
2022/09/20 09:57:19;;;;;;;12.15;5.07;;;;;;;13.56;58.82;100586.22;10382536;28;20052;-85
2022/09/20 10:02:22;;;;;;;11.18;5.25;;;;;;;13.61;59.44;100577.13;10375521;28;20080;-84
2022/09/20 10:07:45;;;;;;;12.40;5.15;;;;;;;14.23;58.19;100580.16;10376882;28;20428;-84
2022/09/20 10:13:09;;;;;;;9.55;4.82;;;;;;;14.49;56.67;100569.66;10410702;28;20049;-84
2022/09/20 10:18:42;;;;;;;10.82;4.65;;;;;;;14.44;56.76;100563.00;10411412;28;20053;-84
2022/09/20 10:24:22;;;;;;;11.32;5.68;;;;;;;14.66;55.92;100557.19;10394995;28;20061;-84
2022/09/20 10:29:24;;;;;;;11.80;5.32;;;;;;;14.98;55.75;100547.97;10375436;28;20053;-84
2022/09/20 10:34:51;;;;;;;16.05;8.43;;;;;;;15.38;54.20;100539.00;10379053;28;20050;-85
2022/09/20 10:40:19;;;;;;;13.13;4.85;;;;;;;15.64;53.96;100540.69;10377246;28;20050;-85
2022/09/20 10:45:36;;;;;;;10.55;4.35;;;;;;;15.80;53.87;100532.50;10375834;28;20072;-84
2022/09/20 10:51:05;;;;;;;10.73;4.20;;;;;;;15.85;53.05;100538.31;10377132;28;20057;-85
2022/09/20 10:56:55;;;;;;;10.85;3.90;;;;;;;15.76;51.99;100546.88;10369883;28;20042;-85
2022/09/20 11:01:56;;;;;;;13.40;3.60;;;;;;;15.35;52.59;100553.22;10365340;28;20060;-85
2022/09/20 11:07:20;;;;;;;8.85;3.30;;;;;;;15.34;50.58;100556.84;10379268;28;20065;-85
2022/09/20 11:12:48;;;;;;;10.95;3.03;;;;;;;15.49;47.68;100567.25;10377851;28;20518;-85
2022/09/20 11:18:08;;;;;;;9.95;2.90;;;;;;;15.55;46.77;100569.50;10371375;28;20132;-85
2022/09/20 11:23:15;;;;;;;10.52;3.05;;;;;;;15.54;47.40;100576.56;10373121;28;20057;-85
2022/09/20 11:28:34;;;;;;;9.57;2.92;;;;;;;15.33;46.54;100565.69;10375790;28;20049;-85
2022/09/20 11:33:51;;;;;;;10.10;2.55;;;;;;;15.25;47.05;100575.06;10372156;28;20503;-85
2022/09/20 11:39:47;;;;;;;9.60;3.00;;;;;;;14.99;47.71;100583.91;10377343;28;20103;-85
2022/09/20 11:44:49;;;;;;;7.35;2.35;;;;;;;15.15;50.30;100576.63;10325431;28;20160;-84
2022/09/20 11:49:51;;;;;;;11.10;4.32;;;;;;;15.12;50.28;100582.13;10375149;28;20161;-85
2022/09/20 11:55:07;;;;;;;6.47;2.60;;;;;;;15.24;50.12;100574.25;10374817;28;20049;-84
2022/09/20 12:00:09;;;;;;;10.98;5.95;;;;;;;15.48;50.95;100563.78;10370867;28;20057;-84
2022/09/20 12:05:36;;;;;;;6.80;3.00;;;;;;;15.54;50.53;100575.69;10372960;28;20057;-84
2022/09/20 12:10:39;;;;;;;6.85;1.90;;;;;;;15.76;49.28;100573.25;10372647;28;20055;-84
2022/09/20 12:15:41;;;;;;;5.35;2.13;;;;;;;15.81;49.01;100558.78;10368177;28;20876;-84
2022/09/20 12:20:43;;;;;;;5.93;2.10;;;;;;;15.63;50.57;100565.38;10372515;28;20049;-84
2022/09/20 12:26:17;;;;;;;6.47;2.80;;;;;;;15.72;50.48;100574.41;10368629;28;20128;-85
2022/09/20 12:31:27;;;;;;;2.97;1.88;;;;;;;15.95;50.10;100577.13;10394349;28;20049;-85
2022/09/20 12:36:31;;;;;;;;;;;;;;;15.76;50.85;100579.38;10388148;28;20522;-85
2022/09/20 12:41:45;;;;;;;5.07;1.63;;;;;;;15.92;49.13;100581.75;10373759;28;19925;-85
2022/09/20 12:47:11;;;;;;;4.10;1.60;;;;;;;15.72;48.98;100580.53;10375696;28;20420;-86
2022/09/20 12:52:49;;;;;;;4.20;1.42;;;;;;;15.35;47.68;100578.75;10371747;28;20058;-85
2022/09/20 12:58:01;;;;;;;6.63;1.77;;;;;;;15.21;49.49;100576.22;10393818;28;20831;-86
2022/09/20 13:03:20;;;;;;;4.70;1.70;;;;;;;14.89;49.26;100577.56;10378451;28;20058;-86
2022/09/20 13:08:28;;;;;;;6.00;1.77;;;;;;;14.76;50.29;100587.25;10378233;28;20088;-85
2022/09/20 13:13:34;;;;;;;5.93;1.90;;;;;;;14.86;51.72;100588.31;10407286;28;20050;-85
2022/09/20 13:18:36;;;;;;;6.10;1.75;;;;;;;14.87;50.91;100582.09;10394924;28;20053;-85
2022/09/20 13:23:48;;;;;;;5.97;1.80;;;;;;;14.87;50.32;100582.09;10380596;28;20064;-85
2022/09/20 13:28:54;;;;;;;4.32;1.92;;;;;;;14.92;51.49;100564.22;10379525;28;20633;-84
2022/09/20 13:34:20;;;;;;;4.50;1.70;;;;;;;14.80;51.48;100562.41;10380839;28;20061;-84
2022/09/20 13:39:26;;;;;;;4.13;1.70;;;;;;;14.74;52.06;100560.16;10411334;28;20054;-84
2022/09/20 13:44:33;;;;;;;5.03;1.83;;;;;;;15.02;52.49;100563.44;10381494;28;20060;-85
2022/09/20 13:49:41;;;;;;;5.32;1.75;;;;;;;15.20;51.80;100569.28;10381141;28;20426;-84
2022/09/20 13:54:43;;;;;;;5.95;2.20;;;;;;;15.61;51.08;100563.78;10377566;28;20053;-85
2022/09/20 13:59:45;;;;;;;4.80;1.90;;;;;;;15.96;50.19;100560.31;10370061;28;20426;-85
2022/09/20 14:04:49;;;;;;;8.43;1.70;;;;;;;16.25;49.71;100555.56;10378601;28;20057;-84
2022/09/20 14:09:51;;;;;;;4.57;1.60;;;;;;;16.39;48.85;100547.47;10378707;28;20053;-85
2022/09/20 14:14:54;;;;;;;6.72;1.63;;;;;;;16.25;48.17;100545.00;10378083;28;20049;-85
2022/09/20 14:19:57;;;;;;;5.03;1.85;;;;;;;16.29;48.10;100540.34;10373560;28;20061;-88
2022/09/20 14:25:20;;;;;;;5.57;1.60;;;;;;;16.36;45.86;100531.88;10378597;28;20049;-86
2022/09/20 14:30:31;;;;;;;6.55;1.60;;;;;;;16.13;46.90;100538.84;10375455;28;20396;-85
2022/09/20 14:35:33;;;;;;;5.03;1.75;;;;;;;15.92;47.33;100543.03;10374127;28;20050;-86
2022/09/20 14:40:46;;;;;;;5.47;1.67;;;;;;;15.78;47.63;100545.81;10392358;28;20418;-85
2022/09/20 14:45:57;;;;;;;6.45;1.60;;;;;;;15.69;47.38;100541.22;10377748;28;20120;-85
2022/09/20 14:51:21;;;;;;;4.75;1.83;;;;;;;15.34;48.49;100535.75;10377412;28;20115;-84
2022/09/20 14:56:33;;;;;;;6.30;1.80;;;;;;;15.33;49.17;100541.09;10393768;28;20153;-84
2022/09/20 15:01:39;;;;;;;6.85;1.77;;;;;;;15.26;49.10;100537.22;10376570;28;20545;-85
2022/09/20 15:06:41;;;;;;;5.55;1.63;;;;;;;15.04;49.90;100543.13;10390640;28;20048;-85
2022/09/20 15:11:43;;;;;;;5.65;1.70;;;;;;;14.89;49.73;100538.91;10376975;28;20517;-85
2022/09/20 15:16:45;;;;;;;4.90;1.65;;;;;;;14.71;51.42;100527.00;10377561;28;20046;-85
2022/09/20 15:21:47;;;;;;;5.45;1.60;;;;;;;14.67;51.83;100545.72;10375875;28;20071;-86
2022/09/20 15:26:52;;;;;;;7.38;1.95;;;;;;;14.57;52.09;100537.59;10369473;28;20081;-84
2022/09/20 15:31:58;;;;;;;6.05;1.88;;;;;;;14.49;52.79;100550.44;10372015;28;20058;-85
2022/09/20 15:37:00;;;;;;;4.82;1.85;;;;;;;14.29;53.31;100548.19;10401497;28;20085;-84
2022/09/20 15:42:12;;;;;;;7.53;1.90;;;;;;;14.06;54.77;100541.81;10373409;28;20436;-84
2022/09/20 15:47:20;;;;;;;8.23;3.35;;;;;;;13.85;55.31;100544.97;10367882;28;20494;-83
2022/09/20 15:52:27;;;;;;;10.98;4.40;;;;;;;13.76;55.91;100541.13;10371905;28;20057;-83
2022/09/20 15:57:33;;;;;;;10.00;3.20;;;;;;;13.57;57.21;100544.09;10368954;28;20132;-83
2022/09/20 16:02:35;;;;;;;16.73;11.02;;;;;;;13.44;57.07;100548.41;10371439;28;20153;-84
2022/09/20 16:07:39;;;;;;;6.15;2.80;;;;;;;13.43;57.50;100540.63;10367209;28;20477;-83
2022/09/20 16:12:40;;;;;;;6.72;3.00;;;;;;;13.54;57.56;100538.16;10368337;28;20486;-83
2022/09/20 16:23:03;;;;;;;9.13;2.25;;;;;;;13.63;57.08;100548.13;10370101;28;20068;-83
2022/09/20 16:28:04;;;;;;;6.03;2.15;;;;;;;13.59;56.96;100551.88;10372824;28;20056;-83
2022/09/20 16:33:10;;;;;;;6.45;2.05;;;;;;;13.54;56.60;100560.03;10374875;28;20095;-83
2022/09/20 16:38:12;;;;;;;5.13;1.80;;;;;;;13.50;57.15;100566.41;10380265;28;20400;-83
2022/09/20 16:43:24;;;;;;;6.90;2.00;;;;;;;13.46;57.59;100564.06;10375887;28;20487;-83
2022/09/20 16:48:30;;;;;;;7.10;1.90;;;;;;;13.32;57.56;100571.91;10379533;28;20050;-85
2022/09/20 16:53:31;;;;;;;7.32;2.15;;;;;;;13.12;57.84;100574.91;10371725;28;20080;-82
2022/09/20 16:58:35;;;;;;;6.95;2.28;;;;;;;12.94;58.78;100582.94;10374141;28;20050;-82
2022/09/20 17:03:39;;;;;;;5.45;2.00;;;;;;;12.76;59.00;100581.38;10376995;28;20061;-81
2022/09/20 17:08:43;;;;;;;7.07;1.95;;;;;;;12.56;59.25;100581.72;10372355;28;20419;-84
2022/09/20 17:13:46;;;;;;;6.85;2.25;;;;;;;12.37;60.02;100588.09;10367213;28;20103;-82
2022/09/20 17:19:38;;;;;;;7.57;2.30;;;;;;;12.22;60.61;100594.16;10375423;28;20400;-81
2022/09/20 17:24:40;;;;;;;7.63;2.50;;;;;;;12.07;61.02;100607.19;10381111;28;20052;-82
2022/09/20 17:29:44;;;;;;;8.25;2.28;;;;;;;12.14;61.25;100603.31;10378775;28;20049;-82
2022/09/20 17:34:45;;;;;;;6.97;2.30;;;;;;;12.21;61.01;100609.06;10412180;28;20050;-83
2022/09/20 17:39:49;;;;;;;5.45;2.10;;;;;;;12.25;61.02;100618.47;10371942;28;20057;-82
2022/09/20 17:44:51;;;;;;;6.88;2.13;;;;;;;12.28;61.09;100620.94;10374453;28;20050;-82
2022/09/20 17:49:53;;;;;;;5.95;2.22;;;;;;;12.36;61.40;100628.38;10371320;28;20080;-82
2022/09/20 17:54:55;;;;;;;5.70;2.00;;;;;;;12.39;61.36;100629.06;10373151;28;20123;-82
2022/09/20 17:59:58;;;;;;;6.05;2.25;;;;;;;12.44;61.09;100637.50;10390213;28;20506;-83
2022/09/20 18:05:00;;;;;;;9.95;3.25;;;;;;;12.43;61.22;100646.31;10365613;28;20066;-83
2022/09/20 18:10:03;;;;;;;12.10;6.45;;;;;;;12.44;61.28;100648.00;10372261;28;20061;-82
2022/09/20 18:15:06;;;;;;;10.30;4.00;;;;;;;12.38;61.36;100648.34;10371002;28;20068;-80
2022/09/20 18:20:08;;;;;;;7.10;3.38;;;;;;;12.43;61.13;100659.44;10383208;28;20528;-81
2022/09/20 18:25:10;;;;;;;6.07;3.13;;;;;;;12.39;61.25;100660.53;10362128;28;20053;-81
2022/09/20 18:30:11;;;;;;;8.90;3.90;;;;;;;12.38;61.24;100663.22;10360363;28;20784;-80
2022/09/20 18:35:13;;;;;;;8.07;3.03;;;;;;;12.41;61.25;100665.69;10359377;28;20060;-81
2022/09/20 18:40:15;;;;;;;7.60;3.38;;;;;;;12.45;61.13;100681.19;10369000;28;20585;-82
2022/09/20 18:45:18;;;;;;;9.07;3.10;;;;;;;12.42;61.26;100686.59;10360389;28;20142;-81
2022/09/20 18:50:20;;;;;;;9.23;2.95;;;;;;;12.36;61.32;100689.56;10363547;28;20085;-81
2022/09/20 18:55:23;;;;;;;9.13;3.42;;;;;;;12.30;61.46;100692.50;10365235;28;20049;-81
2022/09/20 19:00:25;;;;;;;9.02;4.35;;;;;;;12.17;61.61;100696.72;10358866;28;20054;-81
2022/09/20 19:05:27;;;;;;;9.15;5.32;;;;;;;12.01;62.34;100703.69;10367280;28;20065;-80
2022/09/20 19:10:53;;;;;;;8.80;4.75;;;;;;;11.76;62.58;100705.94;10369088;28;20050;-83
2022/09/20 19:16:17;;;;;;;8.57;3.80;;;;;;;11.54;63.15;100716.66;10371684;28;20045;-83
2022/09/20 19:21:19;;;;;;;11.40;3.97;;;;;;;11.30;63.83;100718.75;10376848;28;20056;-83
2022/09/20 19:26:24;;;;;;;8.63;4.35;;;;;;;11.20;64.17;100732.38;10367824;28;20503;-83
2022/09/20 19:31:32;;;;;;;9.05;4.15;;;;;;;11.01;64.51;100727.16;10372741;28;20061;-83
2022/09/20 19:36:47;;;;;;;9.88;4.25;;;;;;;10.87;64.70;100729.59;10371849;28;20085;-83
2022/09/20 19:41:56;;;;;;;9.00;3.20;;;;;;;10.72;65.02;100727.75;10371246;28;20049;-83
2022/09/20 19:47:05;;;;;;;8.98;3.90;;;;;;;10.66;65.16;100741.13;10370854;28;20069;-84
2022/09/20 19:52:10;;;;;;;8.93;3.58;;;;;;;10.74;65.24;100749.44;10362412;28;20530;-83
2022/09/20 19:57:22;;;;;;;9.07;3.50;;;;;;;10.71;65.42;100743.47;10377864;28;20052;-83
2022/09/20 20:02:24;;;;;;;20.42;14.38;;;;;;;10.76;65.13;100747.59;10367931;28;20053;-83
2022/09/20 20:07:44;;;;;;;17.80;11.57;;;;;;;10.80;64.87;100754.38;10366225;28;20056;-83
2022/09/20 20:12:59;;;;;;;18.27;10.25;;;;;;;10.83;65.01;100759.47;10398841;28;20057;-83
2022/09/20 20:18:20;;;;;;;11.73;5.82;;;;;;;10.81;64.80;100761.28;10374841;28;20050;-84
2022/09/20 20:23:33;;;;;;;12.02;4.63;;;;;;;10.68;65.30;100768.03;10365359;28;20057;-83
2022/09/20 20:28:36;;;;;;;12.43;4.18;;;;;;;10.70;64.88;100768.81;10368617;28;20053;-84
2022/09/20 20:33:38;;;;;;;12.27;4.47;;;;;;;10.67;64.92;100768.94;10375380;28;20060;-84
2022/09/20 20:45:04;;;;;;;11.05;5.20;;;;;;;10.29;65.47;100781.19;10368925;28;20050;-84
2022/09/20 20:50:06;;;;;;;8.38;4.80;;;;;;;10.20;65.53;100785.97;10385268;28;20042;-83
2022/09/20 20:55:09;;;;;;;9.30;4.68;;;;;;;10.03;66.05;100784.13;10369963;28;20053;-83
2022/09/20 21:00:11;;;;;;;11.05;4.93;;;;;;;9.99;66.09;100785.13;10361091;28;20050;-83
2022/09/20 21:05:14;;;;;;;9.20;4.80;;;;;;;9.90;66.06;100790.78;10370042;28;20057;-83
2022/09/20 21:10:15;;;;;;;11.85;4.85;;;;;;;9.83;66.01;100794.56;10368150;28;20420;-83
2022/09/20 21:15:17;;;;;;;10.82;6.55;;;;;;;9.68;65.86;100799.59;10371113;28;20077;-83
2022/09/20 21:20:20;;;;;;;7.68;5.07;;;;;;;9.44;66.40;100806.69;10368667;28;21059;-83
2022/09/20 21:25:22;;;;;;;12.63;6.10;;;;;;;9.39;66.55;100804.25;10376610;28;20146;-82
2022/09/20 21:30:23;;;;;;;8.98;4.38;;;;;;;9.37;66.46;100798.25;10378223;28;20057;-83
2022/09/20 21:35:25;;;;;;;9.68;5.07;;;;;;;9.32;66.42;100808.00;10372200;28;20112;-83
2022/09/20 21:40:27;;;;;;;7.50;4.53;;;;;;;9.22;66.43;100816.28;10372716;28;20060;-83
2022/09/20 21:45:28;;;;;;;13.40;5.60;;;;;;;9.03;67.05;100824.00;10372624;28;20054;-83
2022/09/20 21:50:30;;;;;;;8.00;6.00;;;;;;;8.89;67.12;100821.06;10372742;28;20068;-83
2022/09/20 21:55:32;;;;;;;9.70;6.10;;;;;;;8.96;66.98;100822.53;10408750;28;20045;-83
2022/09/20 22:00:34;;;;;;;10.20;6.90;;;;;;;9.02;67.00;100832.72;10371530;28;20091;-82
2022/09/20 22:05:36;;;;;;;12.10;5.43;;;;;;;9.03;67.16;100831.81;10377479;28;20514;-83
2022/09/20 22:10:37;;;;;;;19.98;7.00;;;;;;;8.96;67.28;100832.97;10375215;28;20060;-83
2022/09/20 22:15:39;;;;;;;109.30;8.65;;;;;;;9.01;67.50;100831.03;10374041;28;20080;-83
2022/09/20 22:20:41;;;;;;;25.02;7.65;;;;;;;9.11;67.31;100831.50;10375067;28;20546;-83
2022/09/20 22:25:42;;;;;;;54.40;9.15;;;;;;;9.13;67.31;100835.78;10373293;28;20068;-83
2022/09/20 22:30:44;;;;;;;40.47;6.97;;;;;;;9.16;67.16;100832.16;10369076;28;20419;-83
2022/09/20 22:35:46;;;;;;;66.32;6.55;;;;;;;9.05;67.46;100834.38;10370794;28;20160;-83
2022/09/20 22:40:52;;;;;;;45.45;8.23;;;;;;;9.03;67.60;100825.75;10375354;28;20057;-83
2022/09/20 22:46:03;;;;;;;39.83;11.02;;;;;;;9.01;67.59;100832.78;10375602;28;20057;-83
2022/09/20 22:51:08;;;;;;;50.55;12.15;;;;;;;9.03;67.54;100828.34;10374262;28;20053;-83
2022/09/20 22:56:14;;;;;;;61.13;8.15;;;;;;;9.01;67.36;100828.44;10375427;28;20053;-82
2022/09/20 23:01:24;;;;;;;36.42;8.93;;;;;;;9.01;67.67;100825.81;10371069;28;20049;-83
2022/09/20 23:06:29;;;;;;;22.23;6.40;;;;;;;8.96;67.68;100821.66;10374759;28;20061;-83
2022/09/20 23:11:31;;;;;;;47.15;6.40;;;;;;;8.87;67.46;100829.88;10372572;28;20491;-82
2022/09/20 23:16:35;;;;;;;284.88;12.43;;;;;;;8.56;67.76;100843.22;10372526;28;20050;-82
2022/09/20 23:21:38;;;;;;;467.33;19.63;;;;;;;8.68;67.66;100846.22;10374645;28;20062;-82
2022/09/20 23:26:41;;;;;;;98.38;7.35;;;;;;;8.73;67.85;100846.00;10403563;28;20057;-83
2022/09/20 23:31:45;;;;;;;77.25;6.80;;;;;;;8.74;67.62;100851.19;10370315;28;20160;-82
2022/09/20 23:36:47;;;;;;;58.35;6.07;;;;;;;8.74;67.85;100845.13;10373111;28;20507;-83
2022/09/20 23:41:49;;;;;;;124.28;6.55;;;;;;;8.75;67.71;100844.22;10360641;28;20049;-82
2022/09/20 23:46:51;;;;;;;171.93;8.43;;;;;;;8.72;67.76;100844.34;10364115;28;20046;-82
2022/09/20 23:51:53;;;;;;;199.45;8.90;;;;;;;8.70;67.64;100839.19;10366672;28;20055;-81
2022/09/20 23:56:55;;;;;;;273.85;10.75;;;;;;;8.69;67.98;100842.69;10368094;28;20045;-81
